sensor_id;sensor_type;location;lat;lon;timestamp;P1;durP1;ratioP1;P2;durP2;ratioP2
76117;SDS011;64851;50.232;20.364;2022-11-21T06:25:44;44.60;;;29.50;;
76117;SDS011;64851;50.232;20.364;2022-11-21T06:28:39;45.00;;;27.20;;
76117;SDS011;64851;50.232;20.364;2022-11-21T06:31:24;44.20;;;29.00;;
76117;SDS011;64851;50.232;20.364;2022-11-21T06:34:13;38.30;;;22.70;;
76117;SDS011;64851;50.232;20.364;2022-11-21T06:36:55;36.40;;;21.00;;
76117;SDS011;64851;50.232;20.364;2022-11-21T06:39:42;35.20;;;19.80;;
76117;SDS011;64851;50.232;20.364;2022-11-21T06:42:37;31.90;;;20.40;;
76117;SDS011;64851;50.232;20.364;2022-11-21T06:45:12;35.20;;;18.10;;
76117;SDS011;64851;50.232;20.364;2022-11-21T06:48:01;38.50;;;19.20;;
76117;SDS011;64851;50.232;20.364;2022-11-21T06:50:36;34.30;;;17.10;;
76117;SDS011;64851;50.232;20.364;2022-11-21T06:53:32;39.10;;;18.80;;
76117;SDS011;64851;50.232;20.364;2022-11-21T06:56:07;34.10;;;18.20;;
76117;SDS011;64851;50.232;20.364;2022-11-21T06:59:02;38.00;;;19.40;;
76117;SDS011;64851;50.232;20.364;2022-11-21T07:01:57;37.90;;;19.40;;
76117;SDS011;64851;50.232;20.364;2022-11-21T07:04:33;42.40;;;18.50;;
76117;SDS011;64851;50.232;20.364;2022-11-21T07:07:21;33.80;;;16.40;;
76117;SDS011;64851;50.232;20.364;2022-11-21T07:09:56;38.90;;;17.40;;
76117;SDS011;64851;50.232;20.364;2022-11-21T07:12:44;44.90;;;19.00;;
76117;SDS011;64851;50.232;20.364;2022-11-21T07:15:38;42.60;;;20.30;;
76117;SDS011;64851;50.232;20.364;2022-11-21T07:18:26;38.80;;;18.00;;
76117;SDS011;64851;50.232;20.364;2022-11-21T07:21:02;35.30;;;15.60;;
76117;SDS011;64851;50.232;20.364;2022-11-21T07:23:58;35.20;;;16.90;;
76117;SDS011;64851;50.232;20.364;2022-11-21T07:26:53;30.90;;;14.80;;
76117;SDS011;64851;50.232;20.364;2022-11-21T07:29:28;31.90;;;14.40;;
76117;SDS011;64851;50.232;20.364;2022-11-21T07:32:15;35.20;;;15.30;;
76117;SDS011;64851;50.232;20.364;2022-11-21T07:34:50;36.90;;;15.60;;
76117;SDS011;64851;50.232;20.364;2022-11-21T07:37:38;27.90;;;14.60;;
76117;SDS011;64851;50.232;20.364;2022-11-21T07:40:13;35.10;;;15.70;;
76117;SDS011;64851;50.232;20.364;2022-11-21T07:43:09;43.20;;;18.50;;
76117;SDS011;64851;50.232;20.364;2022-11-21T07:46:04;52.70;;;22.90;;
76117;SDS011;64851;50.232;20.364;2022-11-21T07:48:40;63.00;;;28.10;;
76117;SDS011;64851;50.232;20.364;2022-11-21T07:51:33;56.80;;;26.70;;
76117;SDS011;64851;50.232;20.364;2022-11-21T07:54:15;59.20;;;28.80;;
76117;SDS011;64851;50.232;20.364;2022-11-21T07:56:55;53.30;;;25.40;;
76117;SDS011;64851;50.232;20.364;2022-11-21T07:59:37;34.60;;;18.70;;
76117;SDS011;64851;50.232;20.364;2022-11-21T08:05:00;58.70;;;36.40;;
76117;SDS011;64851;50.232;20.364;2022-11-21T08:07:42;50.00;;;30.70;;
76117;SDS011;64851;50.232;20.364;2022-11-21T08:10:24;37.50;;;28.80;;
76117;SDS011;64851;50.232;20.364;2022-11-21T08:13:12;41.60;;;26.40;;
76117;SDS011;64851;50.232;20.364;2022-11-21T08:15:54;36.30;;;25.10;;
76117;SDS011;64851;50.232;20.364;2022-11-21T08:18:41;42.70;;;25.30;;
76117;SDS011;64851;50.232;20.364;2022-11-21T08:21:23;36.80;;;24.30;;
76117;SDS011;64851;50.232;20.364;2022-11-21T08:24:10;45.80;;;28.20;;
76117;SDS011;64851;50.232;20.364;2022-11-21T08:27:05;41.30;;;29.20;;
76117;SDS011;64851;50.232;20.364;2022-11-21T08:30:00;39.90;;;28.40;;
76117;SDS011;64851;50.232;20.364;2022-11-21T08:32:35;42.70;;;29.60;;
76117;SDS011;64851;50.232;20.364;2022-11-21T08:35:24;41.60;;;29.00;;
76117;SDS011;64851;50.232;20.364;2022-11-21T08:38:00;42.50;;;28.50;;
76117;SDS011;64851;50.232;20.364;2022-11-21T08:40:54;42.10;;;29.20;;
76117;SDS011;64851;50.232;20.364;2022-11-21T08:44:07;43.90;;;27.80;;
76117;SDS011;64851;50.232;20.364;2022-11-21T08:46:49;40.30;;;27.60;;
76117;SDS011;64851;50.232;20.364;2022-11-21T08:49:29;39.00;;;28.10;;
76117;SDS011;64851;50.232;20.364;2022-11-21T08:52:11;41.10;;;29.00;;
76117;SDS011;64851;50.232;20.364;2022-11-21T08:54:59;39.40;;;28.80;;
76117;SDS011;64851;50.232;20.364;2022-11-21T08:57:37;37.90;;;27.70;;
76117;SDS011;64851;50.232;20.364;2022-11-21T09:00:25;39.70;;;30.20;;
76117;SDS011;64851;50.232;20.364;2022-11-21T09:03:03;38.90;;;29.20;;
76117;SDS011;64851;50.232;20.364;2022-11-21T09:05:58;37.30;;;27.40;;
76117;SDS011;64851;50.232;20.364;2022-11-21T09:08:33;39.90;;;27.10;;
76117;SDS011;64851;50.232;20.364;2022-11-21T09:11:21;36.40;;;25.60;;
76117;SDS011;64851;50.232;20.364;2022-11-21T09:13:58;34.90;;;25.50;;
76117;SDS011;64851;50.232;20.364;2022-11-21T09:17:04;33.90;;;24.50;;
76117;SDS011;64851;50.232;20.364;2022-11-21T09:20:05;29.50;;;21.60;;
76117;SDS011;64851;50.232;20.364;2022-11-21T09:22:53;29.80;;;21.90;;
76117;SDS011;64851;50.232;20.364;2022-11-21T09:25:28;29.50;;;20.80;;
76117;SDS011;64851;50.232;20.364;2022-11-21T09:28:22;29.60;;;22.30;;
76117;SDS011;64851;50.232;20.364;2022-11-21T09:31:17;29.30;;;20.70;;
76117;SDS011;64851;50.232;20.364;2022-11-21T09:33:59;30.70;;;21.20;;
76117;SDS011;64851;50.232;20.364;2022-11-21T09:36:46;28.40;;;20.90;;
76117;SDS011;64851;50.232;20.364;2022-11-21T09:39:28;32.10;;;20.70;;
76117;SDS011;64851;50.232;20.364;2022-11-21T09:42:41;32.20;;;21.60;;
76117;SDS011;64851;50.232;20.364;2022-11-21T09:45:29;31.60;;;21.80;;
76117;SDS011;64851;50.232;20.364;2022-11-21T09:48:23;36.00;;;22.00;;
76117;SDS011;64851;50.232;20.364;2022-11-21T09:51:26;31.00;;;20.90;;
76117;SDS011;64851;50.232;20.364;2022-11-21T09:57:03;31.60;;;21.30;;
76117;SDS011;64851;50.232;20.364;2022-11-21T09:59:51;33.20;;;21.30;;
76117;SDS011;64851;50.232;20.364;2022-11-21T10:02:33;31.80;;;19.90;;
76117;SDS011;64851;50.232;20.364;2022-11-21T10:16:48;44.80;;;40.40;;
76117;SDS011;64851;50.232;20.364;2022-11-21T10:19:37;50.60;;;45.70;;
76117;SDS011;64851;50.232;20.364;2022-11-21T10:31:28;29.70;;;26.50;;
76117;SDS011;64851;50.232;20.364;2022-11-21T10:34:20;15.10;;;12.10;;
76117;SDS011;64851;50.232;20.364;2022-11-21T10:37:09;16.60;;;11.10;;
76117;SDS011;64851;50.232;20.364;2022-11-21T10:39:55;19.80;;;12.20;;
76117;SDS011;64851;50.232;20.364;2022-11-21T10:42:39;17.40;;;12.50;;
76117;SDS011;64851;50.232;20.364;2022-11-21T10:45:25;17.10;;;10.80;;
76117;SDS011;64851;50.232;20.364;2022-11-21T10:48:07;16.50;;;10.30;;
76117;SDS011;64851;50.232;20.364;2022-11-21T10:54:08;15.80;;;9.50;;
76117;SDS011;64851;50.232;20.364;2022-11-21T10:57:05;12.80;;;9.00;;
76117;SDS011;64851;50.232;20.364;2022-11-21T10:59:59;17.60;;;12.90;;
76117;SDS011;64851;50.232;20.364;2022-11-21T11:05:38;18.60;;;10.70;;
76117;SDS011;64851;50.232;20.364;2022-11-21T11:08:21;17.10;;;9.30;;
76117;SDS011;64851;50.232;20.364;2022-11-21T11:11:05;16.80;;;7.70;;
76117;SDS011;64851;50.232;20.364;2022-11-21T11:13:58;15.80;;;7.80;;
76117;SDS011;64851;50.232;20.364;2022-11-21T11:16:47;14.60;;;8.20;;
76117;SDS011;64851;50.232;20.364;2022-11-21T11:19:29;15.10;;;8.10;;
76117;SDS011;64851;50.232;20.364;2022-11-21T11:22:29;15.20;;;9.10;;
76117;SDS011;64851;50.232;20.364;2022-11-21T11:25:16;13.80;;;7.50;;
76117;SDS011;64851;50.232;20.364;2022-11-21T11:28:11;15.20;;;7.90;;
76117;SDS011;64851;50.232;20.364;2022-11-21T11:30:53;19.00;;;11.70;;
76117;SDS011;64851;50.232;20.364;2022-11-21T11:33:35;20.80;;;16.60;;
76117;SDS011;64851;50.232;20.364;2022-11-21T11:45:29;60.60;;;54.60;;
76117;SDS011;64851;50.232;20.364;2022-11-21T11:48:27;52.40;;;47.10;;
76117;SDS011;64851;50.232;20.364;2022-11-21T11:51:37;44.60;;;40.10;;
76117;SDS011;64851;50.232;20.364;2022-11-21T11:54:16;35.00;;;31.50;;
76117;SDS011;64851;50.232;20.364;2022-11-21T11:57:12;33.50;;;30.40;;
76117;SDS011;64851;50.232;20.364;2022-11-21T12:03:10;26.60;;;23.80;;
76117;SDS011;64851;50.232;20.364;2022-11-21T12:06:18;24.40;;;21.90;;
76117;SDS011;64851;50.232;20.364;2022-11-21T12:09:38;24.50;;;22.00;;
76117;SDS011;64851;50.232;20.364;2022-11-21T12:21:12;17.50;;;10.90;;
76117;SDS011;64851;50.232;20.364;2022-11-21T12:23:49;15.60;;;10.10;;
76117;SDS011;64851;50.232;20.364;2022-11-21T12:30:19;24.80;;;14.60;;
76117;SDS011;64851;50.232;20.364;2022-11-21T12:33:27;22.10;;;14.20;;
76117;SDS011;64851;50.232;20.364;2022-11-21T12:36:23;15.00;;;9.60;;
76117;SDS011;64851;50.232;20.364;2022-11-21T12:39:28;20.10;;;13.90;;
76117;SDS011;64851;50.232;20.364;2022-11-21T12:42:22;18.40;;;15.10;;
76117;SDS011;64851;50.232;20.364;2022-11-21T12:45:30;17.70;;;14.40;;
76117;SDS011;64851;50.232;20.364;2022-11-21T12:51:46;47.40;;;42.10;;
76117;SDS011;64851;50.232;20.364;2022-11-21T16:05:16;38.60;;;26.50;;
76117;SDS011;64851;50.232;20.364;2022-11-21T16:08:11;28.20;;;18.20;;
76117;SDS011;64851;50.232;20.364;2022-11-21T16:10:46;30.80;;;18.20;;
76117;SDS011;64851;50.232;20.364;2022-11-21T16:13:36;22.40;;;13.40;;
76117;SDS011;64851;50.232;20.364;2022-11-21T16:16:19;18.40;;;11.70;;
76117;SDS011;64851;50.232;20.364;2022-11-21T16:19:01;21.70;;;12.20;;
76117;SDS011;64851;50.232;20.364;2022-11-21T16:21:42;18.20;;;10.60;;
76117;SDS011;64851;50.232;20.364;2022-11-21T16:24:24;20.90;;;13.20;;
76117;SDS011;64851;50.232;20.364;2022-11-21T16:27:06;20.20;;;12.30;;
76117;SDS011;64851;50.232;20.364;2022-11-21T16:29:47;19.00;;;11.30;;
76117;SDS011;64851;50.232;20.364;2022-11-21T16:32:28;19.10;;;11.70;;
76117;SDS011;64851;50.232;20.364;2022-11-21T16:35:09;18.50;;;9.70;;
76117;SDS011;64851;50.232;20.364;2022-11-21T16:37:50;19.70;;;10.30;;
76117;SDS011;64851;50.232;20.364;2022-11-21T16:40:38;16.80;;;8.70;;
76117;SDS011;64851;50.232;20.364;2022-11-21T16:43:15;16.10;;;9.40;;
76117;SDS011;64851;50.232;20.364;2022-11-21T16:46:07;19.70;;;9.70;;
76117;SDS011;64851;50.232;20.364;2022-11-21T16:48:42;16.70;;;9.40;;
76117;SDS011;64851;50.232;20.364;2022-11-21T16:51:32;17.40;;;9.00;;
76117;SDS011;64851;50.232;20.364;2022-11-21T16:54:13;16.60;;;9.00;;
76117;SDS011;64851;50.232;20.364;2022-11-21T16:57:01;27.20;;;15.70;;
76117;SDS011;64851;50.232;20.364;2022-11-21T16:59:36;22.60;;;11.90;;
76117;SDS011;64851;50.232;20.364;2022-11-21T17:02:28;22.60;;;11.40;;
76117;SDS011;64851;50.232;20.364;2022-11-21T17:05:10;22.00;;;11.30;;
76117;SDS011;64851;50.232;20.364;2022-11-21T17:07:59;24.90;;;11.60;;
76117;SDS011;64851;50.232;20.364;2022-11-21T17:10:40;19.40;;;10.90;;
76117;SDS011;64851;50.232;20.364;2022-11-21T17:13:23;30.70;;;25.30;;
76117;SDS011;64851;50.232;20.364;2022-11-21T17:16:06;48.20;;;37.00;;
76117;SDS011;64851;50.232;20.364;2022-11-21T17:19:04;20.60;;;12.30;;
76117;SDS011;64851;50.232;20.364;2022-11-21T17:21:42;22.60;;;11.30;;
76117;SDS011;64851;50.232;20.364;2022-11-21T17:24:37;24.10;;;13.40;;
76117;SDS011;64851;50.232;20.364;2022-11-21T17:27:33;24.20;;;12.30;;
76117;SDS011;64851;50.232;20.364;2022-11-21T17:30:11;27.10;;;13.90;;
76117;SDS011;64851;50.232;20.364;2022-11-21T17:32:59;28.50;;;14.90;;
76117;SDS011;64851;50.232;20.364;2022-11-21T17:35:36;30.80;;;16.60;;
76117;SDS011;64851;50.232;20.364;2022-11-21T17:38:27;24.40;;;14.60;;
76117;SDS011;64851;50.232;20.364;2022-11-21T17:41:03;28.40;;;12.90;;
76117;SDS011;64851;50.232;20.364;2022-11-21T17:43:56;26.80;;;14.20;;
76117;SDS011;64851;50.232;20.364;2022-11-21T17:46:32;28.80;;;13.80;;
76117;SDS011;64851;50.232;20.364;2022-11-21T17:49:27;24.20;;;11.80;;
76117;SDS011;64851;50.232;20.364;2022-11-21T17:52:10;20.90;;;11.10;;
76117;SDS011;64851;50.232;20.364;2022-11-21T17:55:07;21.30;;;11.40;;
76117;SDS011;64851;50.232;20.364;2022-11-21T17:58:02;24.60;;;12.30;;
76117;SDS011;64851;50.232;20.364;2022-11-21T18:01:00;24.20;;;13.20;;
76117;SDS011;64851;50.232;20.364;2022-11-21T18:03:39;24.20;;;13.00;;
76117;SDS011;64851;50.232;20.364;2022-11-21T18:06:28;25.80;;;13.50;;
76117;SDS011;64851;50.232;20.364;2022-11-21T18:09:08;25.40;;;12.40;;
76117;SDS011;64851;50.232;20.364;2022-11-21T18:12:05;22.20;;;11.20;;
76117;SDS011;64851;50.232;20.364;2022-11-21T18:14:41;23.90;;;11.40;;
76117;SDS011;64851;50.232;20.364;2022-11-21T18:17:28;25.10;;;11.40;;
76117;SDS011;64851;50.232;20.364;2022-11-21T18:20:03;23.70;;;11.30;;
76117;SDS011;64851;50.232;20.364;2022-11-21T18:22:51;25.60;;;11.40;;
76117;SDS011;64851;50.232;20.364;2022-11-21T18:25:27;24.70;;;12.00;;
76117;SDS011;64851;50.232;20.364;2022-11-21T18:28:15;24.10;;;12.40;;
76117;SDS011;64851;50.232;20.364;2022-11-21T18:31:00;19.90;;;10.20;;
76117;SDS011;64851;50.232;20.364;2022-11-21T18:33:55;28.40;;;13.80;;
76117;SDS011;64851;50.232;20.364;2022-11-21T18:36:49;32.30;;;15.40;;
76117;SDS011;64851;50.232;20.364;2022-11-21T18:39:32;32.30;;;15.40;;
76117;SDS011;64851;50.232;20.364;2022-11-21T18:42:14;32.70;;;14.30;;
76117;SDS011;64851;50.232;20.364;2022-11-21T18:44:55;29.80;;;13.30;;
76117;SDS011;64851;50.232;20.364;2022-11-21T18:47:37;23.60;;;12.00;;
76117;SDS011;64851;50.232;20.364;2022-11-21T18:50:21;24.50;;;12.10;;
